createdAt,value
2019-01-18T00:03:48.376Z,3.70
2019-01-18T00:09:13.083Z,3.70
2019-01-18T00:14:42.796Z,3.70
2019-01-18T00:20:10.182Z,3.70
2019-01-18T00:22:52.467Z,3.60
2019-01-18T00:28:21.877Z,3.60
2019-01-18T00:33:48.587Z,3.60
2019-01-18T00:36:29.449Z,3.60
2019-01-18T00:39:10.131Z,3.50
2019-01-18T00:41:51.406Z,3.50
2019-01-18T00:44:32.382Z,3.50
2019-01-18T00:49:59.323Z,3.40
2019-01-18T00:55:21.895Z,3.30
2019-01-18T00:58:02.699Z,3.40
2019-01-18T01:00:43.368Z,3.30
2019-01-18T01:03:24.539Z,3.30
2019-01-18T01:06:05.191Z,3.20
2019-01-18T01:11:32.587Z,3.20
2019-01-18T01:14:13.726Z,3.20
2019-01-18T01:16:54.406Z,3.10
2019-01-18T01:22:24.477Z,2.90
2019-01-18T01:27:54.140Z,2.80
2019-01-18T01:30:37.551Z,2.90
2019-01-18T01:33:18.059Z,2.90
2019-01-18T01:35:58.619Z,3.00
2019-01-18T01:38:39.177Z,3.10
2019-01-18T01:44:15.983Z,3.10
2019-01-18T01:46:56.896Z,3.20
2019-01-18T01:49:37.742Z,3.20
2019-01-18T01:52:18.234Z,3.20
2019-01-18T01:54:59.202Z,3.20
2019-01-18T01:57:39.478Z,3.20
2019-01-18T02:00:20.086Z,3.20
2019-01-18T02:03:01.102Z,3.20
2019-01-18T02:05:42.395Z,3.20
2019-01-18T02:08:23.485Z,3.20
2019-01-18T02:11:04.070Z,3.20
2019-01-18T02:13:44.764Z,3.20
2019-01-18T02:19:07.581Z,3.20
2019-01-18T02:24:37.373Z,3.20
2019-01-18T02:27:18.585Z,3.30
2019-01-18T02:29:59.328Z,3.30
2019-01-18T02:32:40.256Z,3.30
2019-01-18T02:38:09.507Z,3.30
2019-01-18T02:40:50.318Z,3.30
2019-01-18T02:43:30.955Z,3.30
2019-01-18T02:46:11.455Z,3.30
2019-01-18T02:48:52.403Z,3.30
2019-01-18T02:51:33.749Z,3.40
2019-01-18T02:54:15.009Z,3.40
2019-01-18T02:59:44.694Z,3.40
2019-01-18T03:05:16.450Z,3.40
2019-01-18T03:22:24.646Z,3.30
2019-01-18T03:27:51.536Z,3.40
2019-01-18T03:42:10.972Z,3.30
2019-01-18T03:44:52.027Z,3.30
2019-01-18T03:53:17.734Z,3.20
2019-01-18T03:58:55.972Z,3.20
2019-01-18T04:01:37.501Z,3.20
2019-01-18T04:04:19.676Z,3.10
2019-01-18T04:06:59.887Z,3.10
2019-01-18T04:09:41.712Z,3.10
2019-01-18T04:15:11.453Z,3.10
2019-01-18T04:20:41.524Z,3.20
2019-01-18T04:26:06.851Z,3.20
2019-01-18T04:31:38.359Z,3.20
2019-01-18T04:37:09.859Z,3.20
2019-01-18T04:39:50.932Z,3.20
2019-01-18T04:42:31.343Z,3.20
2019-01-18T04:45:11.948Z,3.20
2019-01-18T04:47:53.107Z,3.10
2019-01-18T04:50:34.955Z,3.10
2019-01-18T04:56:04.543Z,3.00
2019-01-18T04:58:45.704Z,3.00
2019-01-18T05:01:26.396Z,3.00
2019-01-18T05:06:56.239Z,3.00
2019-01-18T05:12:26.092Z,3.10
2019-01-18T05:15:06.911Z,3.10
2019-01-18T05:17:45.822Z,3.00
2019-01-18T05:20:33.991Z,3.00
2019-01-18T05:26:17.608Z,3.10
2019-01-18T05:29:05.431Z,3.10
2019-01-18T05:31:53.510Z,3.10
2019-01-18T05:34:41.427Z,3.10
2019-01-18T05:40:16.501Z,3.10
2019-01-18T05:42:57.040Z,3.10
2019-01-18T05:48:27.160Z,3.10
2019-01-18T05:51:08.091Z,3.00
2019-01-18T05:53:48.699Z,3.00
2019-01-18T05:56:29.118Z,3.00
2019-01-18T05:59:10.182Z,2.90
2019-01-18T06:01:51.407Z,2.80
2019-01-18T06:04:31.870Z,2.80
2019-01-18T06:07:15.548Z,2.70
2019-01-18T06:12:44.423Z,2.60
2019-01-18T06:15:25.403Z,2.60
2019-01-18T06:18:06.281Z,2.50
2019-01-18T06:20:46.739Z,2.50
2019-01-18T06:23:27.363Z,2.50
2019-01-18T06:28:57.022Z,2.40
2019-01-18T06:31:37.839Z,2.40
2019-01-18T06:34:18.526Z,2.40
2019-01-18T06:39:43.413Z,2.40
2019-01-18T06:42:27.359Z,2.40
2019-01-18T06:47:56.562Z,2.30
2019-01-18T06:50:37.534Z,2.30
2019-01-18T06:53:18.389Z,2.30
2019-01-18T06:55:58.680Z,2.30
2019-01-18T06:58:39.233Z,2.30
2019-01-18T07:04:05.167Z,2.20
2019-01-18T07:09:28.134Z,2.20
2019-01-18T07:12:08.638Z,2.10
2019-01-18T07:14:49.466Z,2.10
2019-01-18T07:20:20.095Z,2.10
2019-01-18T07:23:04.318Z,2.10
2019-01-18T07:28:28.654Z,2.00
2019-01-18T07:31:14.971Z,2.10
2019-01-18T07:33:52.815Z,2.00
2019-01-18T07:36:33.738Z,2.00
2019-01-18T07:39:22.168Z,2.00
2019-01-18T07:41:57.755Z,2.00
2019-01-18T07:44:39.744Z,2.00
2019-01-18T07:47:20.694Z,2.00
2019-01-18T07:50:03.071Z,2.00
2019-01-18T07:55:33.935Z,2.00
2019-01-18T07:58:14.950Z,2.00
2019-01-18T08:00:55.489Z,2.00
2019-01-18T08:03:35.944Z,2.00
2019-01-18T08:06:18.051Z,2.00
2019-01-18T08:08:59.274Z,2.00
2019-01-18T08:11:40.671Z,2.00
2019-01-18T08:14:21.485Z,2.00
2019-01-18T08:19:51.550Z,2.00
2019-01-18T08:25:22.564Z,1.90
2019-01-18T08:30:54.299Z,1.90
2019-01-18T08:36:22.763Z,1.90
2019-01-18T08:39:04.454Z,1.90
2019-01-18T08:41:46.439Z,1.90
2019-01-18T08:47:17.811Z,2.00
2019-01-18T08:50:00.097Z,2.00
2019-01-18T08:55:24.611Z,2.10
2019-01-18T08:58:05.899Z,2.10
2019-01-18T09:00:46.471Z,2.10
2019-01-18T09:06:20.043Z,2.20
2019-01-18T09:09:01.042Z,2.30
2019-01-18T09:11:42.099Z,2.40
2019-01-18T09:14:22.951Z,2.50
2019-01-18T09:17:04.050Z,2.60
2019-01-18T09:19:44.789Z,2.70
2019-01-18T09:22:25.786Z,2.70
2019-01-18T09:25:06.967Z,2.80
2019-01-18T09:27:47.723Z,2.90
2019-01-18T09:30:30.107Z,3.00
2019-01-18T09:38:53.587Z,3.30
2019-01-18T09:41:22.274Z,3.40
2019-01-18T09:43:51.367Z,3.50
2019-01-18T09:46:19.934Z,3.60
2019-01-18T09:48:48.508Z,3.60
2019-01-18T09:51:17.434Z,3.70
2019-01-18T09:53:46.002Z,3.70
2019-01-18T09:56:15.134Z,3.80
2019-01-18T09:58:44.249Z,3.90
2019-01-18T10:01:12.867Z,3.90
2019-01-18T10:03:41.721Z,4.10
2019-01-18T10:06:10.346Z,4.20
2019-01-18T10:08:38.963Z,4.30
2019-01-18T10:11:07.806Z,4.30
2019-01-18T10:13:36.732Z,4.30
2019-01-18T10:16:05.624Z,4.20
2019-01-18T10:18:34.534Z,4.30
2019-01-18T10:21:03.166Z,4.50
2019-01-18T10:23:32.096Z,4.90
2019-01-18T10:26:00.918Z,5.00
2019-01-18T10:28:29.568Z,4.90
2019-01-18T10:30:58.758Z,4.80
2019-01-18T10:33:27.954Z,4.70
2019-01-18T10:35:56.510Z,4.50
2019-01-18T10:38:25.055Z,4.60
2019-01-18T10:40:54.318Z,4.70
2019-01-18T10:43:22.907Z,4.70
2019-01-18T10:45:51.993Z,4.70
2019-01-18T10:48:20.589Z,4.70
2019-01-18T10:50:49.743Z,4.70
2019-01-18T10:53:18.677Z,4.70
2019-01-18T10:55:47.562Z,4.70
2019-01-18T10:58:16.126Z,4.70
2019-01-18T11:00:45.210Z,4.70
2019-01-18T11:03:14.446Z,4.70
2019-01-18T11:05:43.646Z,4.60
2019-01-18T11:08:17.413Z,4.50
2019-01-18T11:10:42.962Z,4.50
2019-01-18T11:13:11.855Z,4.50
2019-01-18T11:15:40.734Z,4.50
2019-01-18T11:18:09.312Z,4.40
2019-01-18T11:20:57.095Z,4.40
2019-01-18T11:23:26.110Z,4.40
2019-01-18T11:25:54.707Z,4.40
2019-01-18T11:28:23.938Z,4.30
2019-01-18T11:30:52.818Z,4.30
2019-01-18T11:33:21.407Z,4.30
2019-01-18T11:35:50.317Z,4.30
2019-01-18T11:38:19.402Z,4.30
2019-01-18T11:40:48.282Z,4.50
2019-01-18T11:43:17.207Z,4.60
2019-01-18T11:45:45.835Z,4.80
2019-01-18T11:48:14.746Z,4.90
2019-01-18T11:50:43.958Z,5.00
2019-01-18T11:53:12.502Z,5.00
2019-01-18T11:55:41.330Z,5.00
2019-01-18T11:58:10.225Z,5.00
2019-01-18T12:00:38.806Z,4.90
2019-01-18T12:03:07.351Z,4.90
2019-01-18T12:05:36.234Z,5.00
2019-01-18T12:08:05.077Z,5.00
2019-01-18T12:10:33.959Z,5.10
2019-01-18T12:13:02.759Z,5.20
2019-01-18T12:15:31.547Z,5.30
2019-01-18T12:18:00.739Z,5.40
2019-01-18T12:20:31.827Z,5.50
2019-01-18T12:23:00.771Z,5.40
2019-01-18T12:25:29.666Z,5.30
2019-01-18T12:27:58.218Z,5.30
2019-01-18T12:30:29.306Z,5.30
2019-01-18T12:32:58.322Z,5.20
2019-01-18T12:35:27.271Z,5.20
2019-01-18T12:37:55.842Z,5.20
2019-01-18T12:40:25.280Z,5.20
2019-01-18T12:42:53.847Z,5.20
2019-01-18T12:45:22.766Z,5.20
2019-01-18T12:47:51.825Z,5.10
2019-01-18T12:50:28.915Z,5.10
2019-01-18T12:52:57.462Z,5.10
2019-01-18T12:55:26.700Z,5.20
2019-01-18T12:57:55.599Z,5.20
2019-01-18T13:00:24.579Z,5.20
2019-01-18T13:02:53.459Z,5.30
2019-01-18T13:05:24.646Z,5.40
2019-01-18T13:07:53.507Z,5.40
2019-01-18T13:10:22.327Z,5.60
2019-01-18T13:12:51.190Z,5.70
2019-01-18T13:15:26.938Z,5.80
2019-01-18T13:17:55.797Z,6.00
2019-01-18T13:20:24.934Z,6.00
2019-01-18T13:22:54.139Z,6.10
2019-01-18T13:25:23.542Z,6.20
2019-01-18T13:27:52.082Z,6.30
2019-01-18T13:30:20.677Z,6.40
2019-01-18T13:32:49.894Z,6.40
2019-01-18T13:35:18.789Z,6.30
2019-01-18T13:37:47.868Z,6.30
2019-01-18T13:40:17.931Z,6.30
2019-01-18T13:42:47.203Z,6.20
2019-01-18T13:45:16.144Z,6.10
2019-01-18T13:47:45.491Z,6.00
2019-01-18T13:50:15.530Z,6.00
2019-01-18T13:52:44.185Z,5.90
2019-01-18T13:55:18.814Z,5.90
2019-01-18T13:57:47.710Z,5.80
2019-01-18T14:00:16.455Z,5.80
2019-01-18T14:02:48.528Z,5.80
2019-01-18T14:05:16.114Z,5.80
2019-01-18T14:07:44.690Z,5.90
2019-01-18T14:10:16.293Z,6.10
2019-01-18T14:12:44.967Z,6.40
2019-01-18T14:15:15.746Z,6.70
2019-01-18T14:17:44.984Z,6.90
2019-01-18T14:20:14.078Z,6.80
2019-01-18T14:22:42.973Z,6.60
2019-01-18T14:25:12.071Z,6.50
2019-01-18T14:27:41.044Z,6.40
2019-01-18T14:30:16.187Z,6.20
2019-01-18T14:32:44.754Z,6.10
2019-01-18T14:35:13.670Z,6.00
2019-01-18T14:37:42.567Z,5.80
2019-01-18T14:40:12.654Z,5.70
2019-01-18T14:42:41.578Z,5.60
2019-01-18T14:45:13.556Z,5.40
2019-01-18T14:47:42.739Z,5.30
2019-01-18T14:50:15.487Z,5.20
2019-01-18T14:52:44.266Z,5.20
2019-01-18T14:55:13.511Z,5.20
2019-01-18T14:57:42.062Z,5.20
2019-01-18T15:00:17.537Z,5.20
2019-01-18T15:02:46.418Z,5.20
2019-01-18T15:05:15.007Z,5.10
2019-01-18T15:07:43.894Z,5.00
2019-01-18T15:10:14.778Z,5.00
2019-01-18T15:12:43.392Z,5.00
2019-01-18T15:15:13.786Z,5.00
2019-01-18T15:17:42.423Z,5.00
2019-01-18T15:20:15.430Z,5.00
2019-01-18T15:22:44.310Z,5.00
2019-01-18T15:25:13.250Z,5.10
2019-01-18T15:27:42.202Z,5.10
2019-01-18T15:30:13.095Z,5.10
2019-01-18T15:32:42.338Z,5.20
2019-01-18T15:35:13.230Z,5.20
2019-01-18T15:37:42.071Z,5.20
2019-01-18T15:40:12.622Z,5.20
2019-01-18T15:42:41.551Z,5.10
2019-01-18T15:45:10.403Z,5.10
2019-01-18T15:47:39.263Z,5.00
2019-01-18T15:50:12.146Z,5.00
2019-01-18T15:52:40.992Z,5.00
2019-01-18T15:55:09.534Z,4.90
2019-01-18T15:57:38.403Z,4.90
2019-01-18T16:00:12.115Z,4.80
2019-01-18T16:02:40.975Z,4.70
2019-01-18T16:05:10.103Z,4.60
2019-01-18T16:07:38.934Z,4.60
2019-01-18T16:10:08.194Z,4.50
2019-01-18T16:12:36.974Z,4.40
2019-01-18T16:15:07.750Z,4.30
2019-01-18T16:17:36.274Z,4.30
2019-01-18T16:20:08.571Z,4.20
2019-01-18T16:22:37.137Z,4.10
2019-01-18T16:25:08.638Z,4.10
2019-01-18T16:27:37.266Z,4.00
2019-01-18T16:30:08.158Z,3.90
2019-01-18T16:32:37.142Z,4.00
2019-01-18T16:35:06.318Z,4.00
2019-01-18T16:37:35.202Z,3.90
2019-01-18T16:40:04.923Z,3.80
2019-01-18T16:42:34.349Z,3.70
2019-01-18T16:45:02.983Z,3.70
2019-01-18T16:47:31.895Z,3.60
2019-01-18T16:50:00.778Z,3.50
2019-01-18T16:52:29.354Z,3.50
2019-01-18T16:54:58.374Z,3.40
2019-01-18T16:57:27.563Z,3.30
2019-01-18T16:59:56.983Z,3.20
2019-01-18T17:02:25.531Z,3.20
2019-01-18T17:04:54.118Z,3.20
2019-01-18T17:07:22.699Z,3.10
2019-01-18T17:09:51.299Z,3.10
2019-01-18T17:12:20.506Z,3.00
2019-01-18T17:14:49.054Z,3.00
2019-01-18T17:17:17.882Z,3.00
2019-01-18T17:19:46.753Z,2.90
2019-01-18T17:22:15.646Z,2.90
2019-01-18T17:24:44.486Z,2.80
2019-01-18T17:27:14.334Z,2.80
2019-01-18T17:29:43.319Z,2.80
2019-01-18T17:32:12.147Z,2.80
2019-01-18T17:34:40.685Z,2.70
2019-01-18T17:37:13.255Z,2.70
2019-01-18T17:40:11.863Z,2.60
2019-01-18T17:43:31.577Z,2.60
2019-01-18T17:46:41.534Z,2.60
2019-01-18T17:49:57.826Z,2.50
2019-01-18T17:52:50.782Z,2.50
2019-01-18T17:55:28.866Z,2.50
2019-01-18T17:58:34.998Z,2.40
2019-01-18T18:01:37.390Z,2.40
2019-01-18T18:04:43.487Z,2.40
2019-01-18T18:07:46.395Z,2.30
2019-01-18T18:10:47.743Z,2.20
2019-01-18T18:13:39.823Z,2.20
2019-01-18T18:16:49.542Z,2.10
2019-01-18T18:19:55.697Z,2.10
2019-01-18T18:23:05.331Z,2.00
2019-01-18T18:26:11.283Z,2.00
2019-01-18T18:29:04.247Z,2.00
2019-01-18T18:31:44.850Z,1.90
2019-01-18T18:35:00.911Z,1.90
2019-01-18T18:38:01.651Z,1.90
2019-01-18T18:40:44.598Z,1.90
2019-01-18T18:43:57.647Z,1.90
2019-01-18T18:47:00.201Z,1.80
2019-01-18T18:49:59.571Z,1.80
2019-01-18T18:53:09.590Z,1.80
2019-01-18T18:56:20.058Z,1.80
2019-01-18T18:59:18.696Z,1.80
2019-01-18T19:02:27.622Z,1.80
2019-01-18T19:05:52.936Z,1.80
2019-01-18T19:08:48.739Z,1.80
2019-01-18T19:11:36.375Z,1.70
2019-01-18T19:14:38.411Z,1.70
2019-01-18T19:17:47.630Z,1.70
2019-01-18T19:20:49.563Z,1.70
2019-01-18T19:23:45.785Z,1.60
2019-01-18T19:27:01.678Z,1.60
2019-01-18T19:29:51.467Z,1.60
2019-01-18T19:32:58.759Z,1.60
2019-01-18T19:35:53.246Z,1.60
2019-01-18T19:38:52.651Z,1.50
2019-01-18T19:42:17.799Z,1.50
2019-01-18T19:45:09.816Z,1.50
2019-01-18T19:47:54.870Z,1.50
2019-01-18T19:50:51.810Z,1.50
2019-01-18T19:53:46.511Z,1.50
2019-01-18T19:56:34.967Z,1.40
2019-01-18T19:59:17.171Z,1.40
2019-01-18T20:02:13.394Z,1.40
2019-01-18T20:05:22.430Z,1.40
2019-01-18T20:08:06.258Z,1.40
2019-01-18T20:11:16.901Z,1.40
2019-01-18T20:14:26.834Z,1.40
2019-01-18T20:17:19.379Z,1.40
2019-01-18T20:20:25.654Z,1.40
2019-01-18T20:23:30.850Z,1.40
2019-01-18T20:26:52.275Z,1.40
2019-01-18T20:30:11.283Z,1.30
2019-01-18T20:33:10.382Z,1.30
2019-01-18T20:36:14.626Z,1.30
2019-01-18T20:39:33.418Z,1.30
2019-01-18T20:42:19.867Z,1.30
2019-01-18T20:45:25.019Z,1.30
2019-01-18T20:48:27.341Z,1.20
2019-01-18T20:51:22.754Z,1.20
2019-01-18T20:53:58.839Z,1.20
2019-01-18T20:56:56.378Z,1.20
2019-01-18T20:59:37.025Z,1.20
2019-01-18T21:02:31.458Z,1.20
2019-01-18T21:05:38.814Z,1.20
2019-01-18T21:08:16.728Z,1.10
2019-01-18T21:11:19.189Z,1.10
2019-01-18T21:14:13.066Z,1.10
2019-01-18T21:17:19.071Z,1.10
2019-01-18T21:20:25.018Z,1.10
2019-01-18T21:23:34.239Z,1.00
2019-01-18T21:26:33.834Z,1.00
2019-01-18T21:29:36.530Z,1.00
2019-01-18T21:32:49.420Z,1.00
2019-01-18T21:35:38.056Z,1.00
2019-01-18T21:38:31.269Z,1.00
2019-01-18T21:41:09.515Z,0.90
2019-01-18T21:44:10.398Z,0.90
2019-01-18T21:47:45.166Z,0.90
2019-01-18T21:50:50.929Z,1.00
2019-01-18T21:53:58.014Z,0.90
2019-01-18T21:57:10.566Z,0.90
2019-01-18T22:00:30.532Z,0.90
2019-01-18T22:03:36.880Z,0.90
2019-01-18T22:06:29.739Z,0.90
2019-01-18T22:09:29.444Z,0.90
2019-01-18T22:12:39.289Z,0.80
2019-01-18T22:15:37.674Z,0.80
2019-01-18T22:18:37.919Z,0.80
2019-01-18T22:21:49.473Z,0.80
2019-01-18T22:25:14.622Z,0.80
2019-01-18T22:28:33.994Z,0.80
2019-01-18T22:31:47.537Z,0.70
2019-01-18T22:34:25.555Z,0.70
2019-01-18T22:37:20.906Z,0.70
2019-01-18T22:40:43.018Z,0.70
2019-01-18T22:43:31.422Z,0.70
2019-01-18T22:46:39.730Z,0.70
2019-01-18T22:49:33.907Z,0.70
2019-01-18T22:52:24.618Z,0.70
2019-01-18T22:55:25.052Z,0.70
2019-01-18T22:58:46.982Z,0.70
2019-01-18T23:01:53.992Z,0.70
2019-01-18T23:04:45.774Z,0.70
2019-01-18T23:07:49.335Z,0.70
2019-01-18T23:10:57.051Z,0.70
2019-01-18T23:13:52.058Z,0.60
2019-01-18T23:16:54.891Z,0.60
2019-01-18T23:20:10.276Z,0.60
2019-01-18T23:23:16.744Z,0.60
2019-01-18T23:26:11.486Z,0.60
2019-01-18T23:29:27.970Z,0.60
2019-01-18T23:32:20.832Z,0.60
2019-01-18T23:35:18.674Z,0.60
2019-01-18T23:38:20.167Z,0.50
2019-01-18T23:41:39.275Z,0.60
2019-01-18T23:44:41.551Z,0.50
2019-01-18T23:47:25.526Z,0.50
2019-01-18T23:50:20.648Z,0.50
2019-01-18T23:53:20.563Z,0.50
2019-01-18T23:56:15.742Z,0.50
2019-01-18T23:59:00.306Z,0.40
